createdAt,value
2019-02-28T00:01:46.499Z,12.10
2019-02-28T00:04:13.763Z,12.47
2019-02-28T00:06:44.049Z,16.35
2019-02-28T00:09:09.843Z,12.37
2019-02-28T00:11:39.527Z,12.73
2019-02-28T00:14:06.090Z,16.35
2019-02-28T00:16:35.635Z,13.80
2019-02-28T00:19:02.549Z,15.55
2019-02-28T00:21:29.894Z,16.32
2019-02-28T00:23:57.592Z,13.70
2019-02-28T00:26:24.910Z,14.35
2019-02-28T00:28:52.200Z,10.38
2019-02-28T00:31:19.246Z,14.60
2019-02-28T00:33:46.389Z,18.82
2019-02-28T00:36:16.327Z,13.95
2019-02-28T00:38:42.504Z,12.88
2019-02-28T00:41:10.261Z,12.88
2019-02-28T00:43:37.273Z,12.90
2019-02-28T00:46:09.672Z,11.97
2019-02-28T00:48:33.678Z,14.35
2019-02-28T00:51:01.004Z,12.60
2019-02-28T00:53:28.046Z,12.33
2019-02-28T00:55:55.098Z,12.70
2019-02-28T00:58:22.475Z,13.85
2019-02-28T01:00:49.831Z,11.40
2019-02-28T01:03:17.118Z,13.00
2019-02-28T01:05:44.155Z,15.83
2019-02-28T01:08:11.526Z,13.38
2019-02-28T01:10:39.263Z,14.58
2019-02-28T01:13:06.998Z,13.13
2019-02-28T01:15:34.370Z,11.25
2019-02-28T01:18:01.619Z,16.60
2019-02-28T01:20:28.874Z,13.25
2019-02-28T01:22:58.571Z,13.05
2019-02-28T01:25:24.938Z,13.03
2019-02-28T01:27:53.019Z,11.18
2019-02-28T01:30:20.449Z,14.23
2019-02-28T01:32:50.916Z,15.18
2019-02-28T01:35:16.903Z,14.15
2019-02-28T01:37:44.191Z,15.50
2019-02-28T01:40:11.526Z,13.55
2019-02-28T01:42:40.006Z,11.73
2019-02-28T01:45:09.975Z,12.37
2019-02-28T01:47:36.151Z,13.95
2019-02-28T01:50:03.193Z,13.13
2019-02-28T01:52:30.252Z,12.93
2019-02-28T01:54:58.574Z,11.85
2019-02-28T01:57:26.449Z,12.90
2019-02-28T01:59:53.849Z,12.95
2019-02-28T02:02:21.182Z,10.82
2019-02-28T02:04:48.229Z,11.53
2019-02-28T02:07:15.283Z,16.23
2019-02-28T02:09:45.892Z,12.53
2019-02-28T02:12:11.348Z,12.53
2019-02-28T02:14:38.390Z,13.20
2019-02-28T02:17:05.722Z,10.68
2019-02-28T02:19:33.078Z,13.53
2019-02-28T02:22:00.122Z,13.48
2019-02-28T02:24:27.962Z,13.88
2019-02-28T02:26:56.293Z,14.55
2019-02-28T02:29:23.351Z,11.88
2019-02-28T02:31:50.410Z,15.93
2019-02-28T02:34:17.697Z,12.33
2019-02-28T02:36:45.075Z,13.25
2019-02-28T02:39:16.438Z,14.98
2019-02-28T02:41:41.443Z,13.30
2019-02-28T02:44:08.499Z,16.55
2019-02-28T02:46:43.027Z,14.53
2019-02-28T02:49:10.163Z,13.85
2019-02-28T02:51:37.205Z,14.45
2019-02-28T02:54:04.224Z,11.00
2019-02-28T02:56:40.465Z,12.13
2019-02-28T02:59:02.370Z,15.53
2019-02-28T03:01:29.441Z,12.47
2019-02-28T03:03:56.741Z,13.40
2019-02-28T03:06:23.898Z,14.10
2019-02-28T03:08:50.949Z,12.47
2019-02-28T03:11:19.061Z,18.87
2019-02-28T03:13:46.358Z,13.20
2019-02-28T03:16:13.718Z,11.10
2019-02-28T03:18:40.768Z,11.43
2019-02-28T03:21:07.799Z,13.95
2019-02-28T03:23:39.836Z,15.25
2019-02-28T03:26:06.880Z,16.30
2019-02-28T03:28:33.335Z,13.00
2019-02-28T03:31:11.657Z,15.00
2019-02-28T03:33:29.805Z,15.63
2019-02-28T03:35:56.848Z,10.72
2019-02-28T03:38:24.210Z,13.62
2019-02-28T03:40:51.239Z,17.30
2019-02-28T03:43:18.294Z,13.28
2019-02-28T03:45:45.588Z,11.25
2019-02-28T03:48:12.715Z,14.50
2019-02-28T03:50:39.755Z,12.80
2019-02-28T03:53:07.110Z,11.93
2019-02-28T03:55:40.035Z,12.03
2019-02-28T03:58:05.423Z,11.43
2019-02-28T04:00:33.926Z,11.85
2019-02-28T04:03:01.444Z,13.60
2019-02-28T04:05:28.667Z,12.43
2019-02-28T04:07:55.699Z,13.05
2019-02-28T04:10:23.125Z,13.68
2019-02-28T04:12:50.184Z,11.20
2019-02-28T04:15:17.506Z,11.35
2019-02-28T04:17:44.814Z,12.50
2019-02-28T04:20:13.221Z,10.13
2019-02-28T04:22:40.594Z,12.05
2019-02-28T04:25:07.647Z,12.68
2019-02-28T04:27:34.997Z,14.10
2019-02-28T04:30:06.200Z,14.40
2019-02-28T04:32:31.031Z,12.98
2019-02-28T04:34:58.081Z,14.83
2019-02-28T04:37:25.120Z,12.25
2019-02-28T04:39:53.316Z,14.05
2019-02-28T04:42:21.380Z,20.08
2019-02-28T04:44:49.250Z,13.53
2019-02-28T04:47:17.422Z,12.50
2019-02-28T04:49:44.778Z,11.95
2019-02-28T04:52:12.786Z,12.68
2019-02-28T04:54:40.327Z,17.77
2019-02-28T04:57:07.367Z,13.58
2019-02-28T04:59:34.941Z,15.10
2019-02-28T05:02:02.269Z,12.00
2019-02-28T05:04:29.320Z,13.53
2019-02-28T05:06:56.364Z,15.18
2019-02-28T05:09:23.397Z,14.65
2019-02-28T05:11:50.767Z,11.93
2019-02-28T05:14:23.387Z,13.40
2019-02-28T05:16:47.514Z,12.78
2019-02-28T05:19:15.444Z,13.22
2019-02-28T05:21:42.540Z,13.38
2019-02-28T05:24:09.526Z,11.68
2019-02-28T05:26:36.867Z,14.07
2019-02-28T05:29:04.028Z,11.43
2019-02-28T05:31:31.078Z,14.75
2019-02-28T05:33:59.240Z,15.43
2019-02-28T05:36:26.290Z,13.05
2019-02-28T05:38:56.691Z,14.03
2019-02-28T05:41:22.718Z,12.55
2019-02-28T05:43:50.505Z,10.75
2019-02-28T05:46:20.293Z,12.58
2019-02-28T05:48:46.932Z,12.10
2019-02-28T05:51:14.239Z,14.18
2019-02-28T05:53:42.635Z,16.32
2019-02-28T05:56:09.803Z,13.55
2019-02-28T05:58:37.174Z,12.93
2019-02-28T06:01:05.585Z,14.60
2019-02-28T06:03:32.642Z,12.60
2019-02-28T06:05:59.954Z,16.12
2019-02-28T06:08:27.309Z,14.00
2019-02-28T06:10:56.107Z,14.63
2019-02-28T06:13:23.089Z,14.00
2019-02-28T06:15:50.500Z,14.68
2019-02-28T06:18:17.855Z,13.10
2019-02-28T06:20:44.902Z,16.85
2019-02-28T06:23:12.191Z,17.32
2019-02-28T06:25:39.240Z,14.20
2019-02-28T06:28:06.581Z,16.02
2019-02-28T06:30:33.918Z,11.63
2019-02-28T06:33:00.964Z,14.53
2019-02-28T06:35:28.325Z,14.70
2019-02-28T06:37:55.445Z,14.13
2019-02-28T06:40:22.825Z,15.55
2019-02-28T06:42:50.182Z,15.43
2019-02-28T06:45:17.230Z,19.15
2019-02-28T06:47:47.972Z,15.13
2019-02-28T06:50:13.798Z,15.60
2019-02-28T06:52:40.947Z,15.05
2019-02-28T06:55:08.290Z,13.85
2019-02-28T06:57:35.604Z,16.67
2019-02-28T07:00:02.643Z,14.73
2019-02-28T07:02:31.438Z,15.95
2019-02-28T07:04:58.425Z,15.38
2019-02-28T07:07:25.479Z,14.28
2019-02-28T07:09:52.826Z,14.30
2019-02-28T07:12:20.181Z,14.50
2019-02-28T07:14:49.331Z,17.37
2019-02-28T07:17:16.293Z,15.48
2019-02-28T07:19:43.323Z,18.75
2019-02-28T07:22:10.738Z,19.82
2019-02-28T07:24:38.233Z,17.35
2019-02-28T07:27:05.321Z,17.95
2019-02-28T07:29:32.356Z,17.98
2019-02-28T07:32:01.222Z,21.45
2019-02-28T07:34:28.562Z,18.87
2019-02-28T07:36:55.618Z,17.10
2019-02-28T07:39:22.931Z,19.07
2019-02-28T07:41:49.987Z,21.87
2019-02-28T07:44:21.262Z,17.40
2019-02-28T07:46:46.095Z,18.85
2019-02-28T07:49:13.149Z,17.02
2019-02-28T07:51:40.439Z,18.50
2019-02-28T07:54:07.777Z,19.20
2019-02-28T07:56:35.137Z,18.45
2019-02-28T07:59:05.335Z,18.42
2019-02-28T08:01:30.929Z,18.77
2019-02-28T08:03:58.324Z,19.23
2019-02-28T08:06:25.372Z,18.17
2019-02-28T08:08:52.730Z,22.87
2019-02-28T08:11:20.838Z,21.42
2019-02-28T08:13:48.361Z,19.60
2019-02-28T08:16:15.653Z,23.22
2019-02-28T08:18:42.969Z,21.00
2019-02-28T08:21:10.041Z,20.72
2019-02-28T08:23:37.674Z,21.27
2019-02-28T08:26:05.105Z,23.38
2019-02-28T08:28:35.834Z,24.85
2019-02-28T08:31:00.895Z,27.22
2019-02-28T08:33:27.947Z,23.42
2019-02-28T08:35:55.280Z,23.50
2019-02-28T08:38:23.565Z,26.62
2019-02-28T08:40:51.665Z,26.20
2019-02-28T08:43:26.850Z,24.02
2019-02-28T08:45:47.543Z,30.57
2019-02-28T08:48:14.593Z,29.65
2019-02-28T08:50:41.640Z,28.17
2019-02-28T08:53:08.680Z,24.82
2019-02-28T08:55:38.437Z,28.90
2019-02-28T08:58:06.463Z,30.82
2019-02-28T09:00:33.501Z,26.75
2019-02-28T09:03:01.059Z,27.30
2019-02-28T09:05:30.078Z,28.57
2019-02-28T09:07:58.280Z,30.70
2019-02-28T09:10:26.747Z,26.87
2019-02-28T09:12:54.021Z,28.35
2019-02-28T09:15:21.081Z,32.10
2019-02-28T09:17:48.122Z,28.23
2019-02-28T09:20:15.178Z,29.92
2019-02-28T09:22:42.511Z,33.75
2019-02-28T09:25:10.635Z,28.47
2019-02-28T09:27:38.849Z,27.07
2019-02-28T09:30:06.679Z,27.42
2019-02-28T09:32:33.798Z,28.35
2019-02-28T09:35:02.572Z,31.70
2019-02-28T09:37:30.499Z,31.87
2019-02-28T09:39:57.872Z,34.90
2019-02-28T09:42:24.919Z,31.90
2019-02-28T09:44:51.977Z,29.60
2019-02-28T09:47:19.023Z,29.63
2019-02-28T09:49:47.155Z,29.92
2019-02-28T09:52:15.382Z,27.15
2019-02-28T09:54:42.435Z,34.13
2019-02-28T09:57:09.771Z,29.52
2019-02-28T09:59:37.831Z,29.37
2019-02-28T10:02:08.417Z,28.55
2019-02-28T10:04:36.136Z,26.68
2019-02-28T10:07:03.513Z,32.65
2019-02-28T10:09:30.569Z,29.07
2019-02-28T10:11:57.891Z,26.97
2019-02-28T10:14:25.739Z,29.95
2019-02-28T10:16:53.983Z,28.90
2019-02-28T10:19:21.126Z,29.30
2019-02-28T10:21:51.847Z,30.20
2019-02-28T10:24:17.046Z,29.18
2019-02-28T10:26:44.097Z,27.30
2019-02-28T10:29:11.450Z,28.98
2019-02-28T10:31:38.673Z,34.83
2019-02-28T10:34:05.726Z,29.80
2019-02-28T10:36:32.772Z,28.45
2019-02-28T10:39:02.746Z,31.07
2019-02-28T10:41:31.766Z,28.17
2019-02-28T10:43:58.810Z,27.50
2019-02-28T10:46:25.865Z,32.23
2019-02-28T10:48:53.234Z,30.02
2019-02-28T10:51:20.286Z,28.57
2019-02-28T10:53:47.330Z,30.35
2019-02-28T10:56:14.382Z,32.08
2019-02-28T10:58:41.733Z,33.58
2019-02-28T11:01:09.024Z,28.45
2019-02-28T11:03:36.107Z,28.75
2019-02-28T11:06:03.491Z,31.07
2019-02-28T11:08:30.540Z,28.85
2019-02-28T11:10:57.894Z,28.70
2019-02-28T11:13:25.353Z,29.02
2019-02-28T11:15:52.415Z,28.47
2019-02-28T11:18:19.454Z,30.92
2019-02-28T11:20:46.826Z,25.10
2019-02-28T11:23:17.963Z,26.93
2019-02-28T11:25:45.046Z,28.35
2019-02-28T11:28:12.349Z,29.10
2019-02-28T11:30:44.375Z,27.00
2019-02-28T11:33:08.450Z,32.13
2019-02-28T11:35:35.503Z,26.73
2019-02-28T11:38:04.840Z,31.20
2019-02-28T11:40:31.631Z,27.77
2019-02-28T11:42:59.362Z,23.95
2019-02-28T11:45:27.674Z,25.15
2019-02-28T11:47:54.730Z,23.20
2019-02-28T11:50:21.782Z,22.35
2019-02-28T11:52:49.194Z,26.77
2019-02-28T11:55:16.878Z,23.95
2019-02-28T11:57:45.286Z,25.90
2019-02-28T12:00:13.463Z,21.33
2019-02-28T12:02:40.821Z,25.37
2019-02-28T12:05:07.857Z,23.07
2019-02-28T12:07:35.708Z,28.73
2019-02-28T12:10:03.916Z,24.43
2019-02-28T12:12:31.295Z,28.23
2019-02-28T12:15:02.441Z,22.70
2019-02-28T12:17:28.559Z,22.25
2019-02-28T12:19:56.127Z,23.27
2019-02-28T12:22:23.183Z,26.77
2019-02-28T12:24:50.528Z,24.47
2019-02-28T12:27:17.830Z,24.10
2019-02-28T12:29:45.584Z,21.02
2019-02-28T12:32:13.629Z,24.98
2019-02-28T12:34:40.976Z,23.90
2019-02-28T12:37:09.007Z,20.40
2019-02-28T12:39:36.504Z,23.07
2019-02-28T12:42:04.369Z,21.10
2019-02-28T12:44:31.418Z,22.85
2019-02-28T12:46:58.470Z,21.48
2019-02-28T12:49:27.572Z,25.00
2019-02-28T12:51:54.259Z,23.45
2019-02-28T12:54:21.557Z,25.52
2019-02-28T12:56:48.928Z,23.10
2019-02-28T12:59:15.949Z,22.93
2019-02-28T13:01:43.312Z,20.75
2019-02-28T13:04:10.352Z,23.70
2019-02-28T13:06:37.735Z,30.17
2019-02-28T13:09:04.777Z,28.17
2019-02-28T13:11:35.834Z,27.80
2019-02-28T13:14:02.942Z,27.70
2019-02-28T13:16:30.536Z,22.40
2019-02-28T13:18:57.591Z,28.47
2019-02-28T13:21:24.929Z,25.52
2019-02-28T13:23:51.970Z,27.22
2019-02-28T13:26:19.323Z,25.10
2019-02-28T13:28:46.697Z,25.37
2019-02-28T13:31:14.040Z,30.50
2019-02-28T13:33:41.096Z,25.12
2019-02-28T13:36:08.172Z,25.05
2019-02-28T13:38:35.485Z,23.65
2019-02-28T13:41:02.524Z,28.12
2019-02-28T13:43:31.966Z,27.65
2019-02-28T13:45:58.674Z,26.85
2019-02-28T13:48:30.004Z,24.10
2019-02-28T13:50:55.508Z,24.23
2019-02-28T13:53:23.502Z,24.75
2019-02-28T13:55:52.680Z,29.63
2019-02-28T13:58:21.577Z,22.00
2019-02-28T14:00:49.714Z,22.42
2019-02-28T14:03:17.188Z,20.85
2019-02-28T14:05:44.676Z,24.07
2019-02-28T14:08:12.359Z,24.35
2019-02-28T14:10:39.803Z,21.73
2019-02-28T14:13:06.859Z,24.15
2019-02-28T14:15:33.901Z,28.30
2019-02-28T14:18:01.213Z,21.42
2019-02-28T14:20:28.473Z,25.12
2019-02-28T14:22:55.881Z,26.93
2019-02-28T14:25:23.216Z,24.65
2019-02-28T14:27:50.518Z,24.77
2019-02-28T14:30:19.642Z,22.15
2019-02-28T14:32:46.864Z,22.37
2019-02-28T14:35:14.189Z,20.62
2019-02-28T14:37:41.322Z,22.10
2019-02-28T14:40:08.678Z,24.15
2019-02-28T14:42:35.735Z,20.77
2019-02-28T14:45:03.975Z,21.23
2019-02-28T14:47:31.583Z,24.50
2019-02-28T14:49:58.934Z,23.40
2019-02-28T14:52:25.976Z,21.85
2019-02-28T14:54:57.081Z,24.25
2019-02-28T14:57:23.157Z,23.73
2019-02-28T14:59:50.262Z,23.87
2019-02-28T15:02:17.554Z,21.93
2019-02-28T15:04:45.790Z,22.87
2019-02-28T15:07:13.297Z,22.27
2019-02-28T15:09:40.351Z,24.63
2019-02-28T15:12:07.675Z,22.90
2019-02-28T15:14:35.032Z,22.07
2019-02-28T15:17:06.735Z,26.42
2019-02-28T15:19:31.484Z,19.45
2019-02-28T15:21:58.834Z,26.50
2019-02-28T15:24:26.955Z,20.08
2019-02-28T15:26:53.995Z,23.62
2019-02-28T15:29:23.471Z,22.85
2019-02-28T15:31:50.118Z,20.92
2019-02-28T15:34:17.456Z,21.07
2019-02-28T15:36:44.563Z,20.60
2019-02-28T15:39:12.599Z,22.22
2019-02-28T15:41:39.939Z,26.42
2019-02-28T15:44:07.284Z,26.52
2019-02-28T15:46:36.005Z,18.95
2019-02-28T15:49:03.175Z,23.57
2019-02-28T15:51:30.356Z,21.40
2019-02-28T15:53:57.446Z,16.80
2019-02-28T15:56:24.626Z,19.35
2019-02-28T15:58:51.679Z,21.02
2019-02-28T16:01:18.718Z,17.37
2019-02-28T16:03:48.351Z,18.23
2019-02-28T16:06:16.313Z,14.05
2019-02-28T16:08:46.789Z,23.70
2019-02-28T16:11:12.595Z,19.87
2019-02-28T16:13:39.948Z,19.50
2019-02-28T16:16:06.995Z,20.12
2019-02-28T16:18:34.052Z,17.37
2019-02-28T16:21:03.677Z,20.08
2019-02-28T16:23:31.087Z,21.23
2019-02-28T16:25:58.466Z,20.17
2019-02-28T16:28:25.826Z,21.55
2019-02-28T16:30:52.881Z,21.70
2019-02-28T16:33:20.820Z,20.25
2019-02-28T16:35:50.463Z,21.30
2019-02-28T16:38:18.315Z,23.05
2019-02-28T16:40:45.448Z,20.90
2019-02-28T16:43:13.230Z,22.15
2019-02-28T16:45:41.065Z,27.90
2019-02-28T16:48:09.001Z,29.18
2019-02-28T16:50:36.055Z,27.35
2019-02-28T16:53:03.367Z,23.38
2019-02-28T16:55:31.040Z,33.50
2019-02-28T16:57:59.100Z,24.45
2019-02-28T17:00:26.154Z,29.52
2019-02-28T17:02:53.509Z,24.70
2019-02-28T17:05:26.600Z,26.00
2019-02-28T17:07:49.313Z,28.57
2019-02-28T17:10:16.435Z,26.17
2019-02-28T17:12:43.717Z,26.00
2019-02-28T17:15:10.774Z,21.25
2019-02-28T17:17:38.144Z,23.02
2019-02-28T17:20:07.162Z,23.92
2019-02-28T17:22:34.600Z,22.75
2019-02-28T17:25:01.972Z,23.05
2019-02-28T17:27:29.327Z,26.87
2019-02-28T17:29:57.653Z,24.55
2019-02-28T17:32:28.108Z,20.75
2019-02-28T17:34:55.988Z,25.10
2019-02-28T17:37:25.866Z,23.50
2019-02-28T17:39:52.541Z,24.85
2019-02-28T17:42:19.891Z,20.82
2019-02-28T17:44:47.195Z,21.00
2019-02-28T17:47:14.470Z,20.60
2019-02-28T17:49:41.735Z,16.77
2019-02-28T17:52:12.210Z,23.38
2019-02-28T17:55:01.222Z,20.45
2019-02-28T17:57:29.477Z,20.32
2019-02-28T17:59:56.708Z,23.07
2019-02-28T18:02:25.003Z,58.98
2019-02-28T18:05:03.866Z,64.27
2019-02-28T18:10:15.727Z,32.20
2019-02-28T18:12:44.319Z,23.75
2019-02-28T18:15:12.924Z,26.20
2019-02-28T18:17:40.147Z,22.37
2019-02-28T18:20:07.379Z,28.02
2019-02-28T18:22:35.163Z,20.50
2019-02-28T18:25:03.113Z,22.80
2019-02-28T18:27:32.028Z,22.67
2019-02-28T18:29:59.388Z,21.20
2019-02-28T18:32:29.735Z,17.52
2019-02-28T18:34:56.223Z,22.52
2019-02-28T18:37:24.525Z,28.00
2019-02-28T18:39:51.650Z,24.82
2019-02-28T18:42:20.003Z,21.20
2019-02-28T18:44:47.475Z,20.48
2019-02-28T18:47:14.529Z,21.52
2019-02-28T18:49:41.589Z,24.32
2019-02-28T18:52:08.699Z,21.15
2019-02-28T18:54:35.994Z,21.48
2019-02-28T18:57:03.180Z,17.27
2019-02-28T18:59:30.215Z,23.98
2019-02-28T19:01:58.740Z,21.00
2019-02-28T19:04:26.098Z,20.45
2019-02-28T19:06:53.182Z,43.73
2019-02-28T19:09:20.222Z,36.08
2019-02-28T19:11:47.347Z,20.43
2019-02-28T19:14:14.905Z,22.55
2019-02-28T19:16:41.950Z,20.37
2019-02-28T19:19:09.303Z,14.93
2019-02-28T19:21:37.681Z,13.10
2019-02-28T19:24:05.462Z,12.78
2019-02-28T19:26:32.516Z,15.63
2019-02-28T19:28:59.850Z,17.10
2019-02-28T19:31:26.907Z,16.12
2019-02-28T19:33:54.191Z,14.65
2019-02-28T19:36:21.563Z,13.83
2019-02-28T19:38:49.065Z,17.10
2019-02-28T19:41:17.069Z,16.97
2019-02-28T19:43:44.197Z,14.13
2019-02-28T19:46:11.554Z,15.85
2019-02-28T19:48:38.894Z,17.05
2019-02-28T19:51:06.172Z,13.65
2019-02-28T19:53:33.217Z,17.55
2019-02-28T19:56:00.498Z,17.52
2019-02-28T19:58:27.801Z,15.10
2019-02-28T20:00:54.837Z,17.37
2019-02-28T20:03:22.121Z,12.98
2019-02-28T20:05:49.173Z,13.48
2019-02-28T20:08:16.350Z,16.37
2019-02-28T20:10:43.860Z,13.00
2019-02-28T20:13:11.300Z,13.10
2019-02-28T20:15:38.678Z,17.15
2019-02-28T20:18:05.727Z,11.95
2019-02-28T20:20:32.764Z,15.38
2019-02-28T20:23:00.125Z,12.88
2019-02-28T20:25:27.408Z,12.60
2019-02-28T20:27:54.458Z,14.87
2019-02-28T20:30:21.762Z,17.23
2019-02-28T20:32:49.063Z,31.25
2019-02-28T20:35:25.907Z,60.98
2019-02-28T20:37:45.310Z,13.70
2019-02-28T20:40:14.054Z,10.60
2019-02-28T20:42:42.340Z,12.10
2019-02-28T20:45:10.845Z,13.60
2019-02-28T20:47:38.182Z,12.07
2019-02-28T20:50:05.462Z,7.97
2019-02-28T20:52:33.216Z,12.85
2019-02-28T20:55:00.364Z,8.20
2019-02-28T20:57:27.433Z,11.33
2019-02-28T20:59:54.752Z,8.63
2019-02-28T21:02:21.791Z,11.48
2019-02-28T21:04:49.153Z,10.40
2019-02-28T21:07:16.537Z,12.60
2019-02-28T21:09:45.181Z,9.33
2019-02-28T21:12:12.511Z,11.30
2019-02-28T21:14:39.557Z,12.70
2019-02-28T21:17:06.589Z,13.18
2019-02-28T21:19:33.641Z,12.85
2019-02-28T21:22:00.667Z,8.00
2019-02-28T21:24:27.728Z,11.50
2019-02-28T21:26:55.061Z,12.82
2019-02-28T21:29:22.119Z,8.93
2019-02-28T21:31:49.151Z,11.12
2019-02-28T21:34:18.438Z,6.67
2019-02-28T21:36:45.502Z,9.60
2019-02-28T21:39:12.554Z,13.30
2019-02-28T21:41:41.462Z,9.75
2019-02-28T21:44:10.011Z,16.48
2019-02-28T21:46:37.369Z,10.63
2019-02-28T21:49:04.826Z,10.58
2019-02-28T21:51:31.856Z,14.38
2019-02-28T21:53:59.325Z,12.93
2019-02-28T21:56:26.806Z,12.60
2019-02-28T21:58:53.856Z,16.67
2019-02-28T22:01:20.887Z,8.58
2019-02-28T22:03:48.355Z,12.65
2019-02-28T22:06:15.693Z,10.48
2019-02-28T22:08:43.064Z,14.18
2019-02-28T22:11:10.402Z,12.70
2019-02-28T22:13:37.452Z,12.03
2019-02-28T22:16:04.748Z,15.00
2019-02-28T22:18:31.791Z,9.10
2019-02-28T22:20:59.129Z,10.65
2019-02-28T22:23:26.180Z,9.88
2019-02-28T22:25:53.481Z,16.70
2019-02-28T22:28:20.513Z,12.63
2019-02-28T22:30:47.565Z,10.40
2019-02-28T22:33:14.601Z,12.07
2019-02-28T22:35:42.717Z,11.60
2019-02-28T22:38:09.994Z,15.00
2019-02-28T22:40:37.173Z,10.08
2019-02-28T22:43:04.809Z,14.05
2019-02-28T22:45:31.862Z,16.23
2019-02-28T22:47:59.214Z,9.20
2019-02-28T22:50:26.285Z,15.13
2019-02-28T22:52:53.316Z,11.43
2019-02-28T22:55:20.364Z,14.63
2019-02-28T22:57:47.692Z,11.12
2019-02-28T23:00:15.048Z,12.13
2019-02-28T23:02:42.151Z,9.68
2019-02-28T23:05:09.198Z,12.28
2019-02-28T23:07:36.477Z,12.15
2019-02-28T23:10:03.529Z,12.13
2019-02-28T23:12:30.633Z,10.30
2019-02-28T23:14:57.689Z,12.68
2019-02-28T23:17:24.725Z,13.28
2019-02-28T23:19:51.769Z,7.85
2019-02-28T23:22:19.112Z,11.15
2019-02-28T23:24:46.157Z,10.28
2019-02-28T23:27:13.192Z,7.53
2019-02-28T23:29:41.569Z,12.25
2019-02-28T23:32:08.604Z,12.47
2019-02-28T23:34:35.974Z,10.82
2019-02-28T23:37:03.004Z,7.58
2019-02-28T23:39:30.375Z,9.93
2019-02-28T23:41:57.642Z,12.13
2019-02-28T23:44:24.986Z,11.28
2019-02-28T23:46:52.038Z,10.23
2019-02-28T23:49:19.800Z,11.38
2019-02-28T23:51:46.843Z,7.90
2019-02-28T23:54:14.129Z,8.90
2019-02-28T23:56:41.164Z,8.15
2019-02-28T23:59:08.515Z,8.00
